Time;durP1;ratioP1;P1;durP2;ratioP2;P2;SDS_P1;SDS_P2;PMS_P1;PMS_P2;Temp;Humidity;BMP_temperature;BMP_pressure;BME280_temperature;BME280_humidity;BME280_pressure;Samples;Min_cycle;Max_cycle;Signal;HPM_P1;HPM_P2
2022/03/15 00:00:40;;;;;;;4.53;3.53;;;8.90;99.90;;;;;;4995675;28;20169;-69
2022/03/15 00:03:06;;;;;;;7.10;4.73;;;8.90;99.90;;;;;;4995951;28;20250;-67
2022/03/15 00:05:32;;;;;;;6.30;3.70;;;8.80;99.90;;;;;;4994818;28;20173;-68
2022/03/15 00:07:57;;;;;;;5.30;4.07;;;8.80;99.90;;;;;;4995069;28;20477;-68
2022/03/15 00:10:24;;;;;;;6.40;3.87;;;8.90;99.90;;;;;;4994365;28;20293;-68
2022/03/15 00:12:50;;;;;;;6.53;3.57;;;8.90;99.90;;;;;;4995056;28;20473;-68
2022/03/15 00:15:16;;;;;;;4.73;3.80;;;8.90;99.90;;;;;;4995505;28;20776;-68
2022/03/15 00:17:44;;;;;;;6.93;4.50;;;8.80;99.90;;;;;;4995429;28;20433;-68
2022/03/15 00:20:18;;;;;;;6.90;5.20;;;8.60;99.90;;;;;;4994863;28;20254;-68
2022/03/15 00:22:44;;;;;;;6.10;4.87;;;8.70;99.90;;;;;;4995039;28;20402;-66
2022/03/15 00:25:15;;;;;;;4.97;3.70;;;8.90;99.90;;;;;;4994377;28;20563;-66
2022/03/15 00:27:40;;;;;;;5.43;4.20;;;9.00;99.90;;;;;;4994735;28;20489;-67
2022/03/15 00:30:07;;;;;;;6.97;4.70;;;9.00;99.90;;;;;;4994425;28;20449;-67
2022/03/15 00:32:33;;;;;;;5.07;3.70;;;8.90;99.90;;;;;;4994438;28;20238;-67
2022/03/15 00:34:59;;;;;;;7.73;4.13;;;8.90;99.90;;;;;;4994826;28;20406;-67
2022/03/15 00:37:25;;;;;;;5.77;3.80;;;8.90;99.90;;;;;;4994396;28;20954;-68
2022/03/15 00:39:51;;;;;;;4.23;3.53;;;8.80;99.90;;;;;;4992650;28;20438;-67
2022/03/15 00:42:17;;;;;;;4.43;3.93;;;8.70;99.90;;;;;;4994348;28;20178;-67
2022/03/15 00:44:43;;;;;;;4.47;3.57;;;8.70;99.90;;;;;;4994439;28;20548;-67
2022/03/15 00:47:09;;;;;;;7.83;3.73;;;8.70;99.90;;;;;;4993613;28;20470;-67
2022/03/15 00:49:36;;;;;;;4.80;3.47;;;8.70;99.90;;;;;;4994337;28;20185;-67
2022/03/15 00:52:02;;;;;;;3.73;3.03;;;8.60;99.90;;;;;;4994157;28;20459;-67
2022/03/15 00:54:27;;;;;;;5.37;3.50;;;8.60;99.90;;;;;;4993958;28;20434;-67
2022/03/15 00:56:54;;;;;;;5.43;3.33;;;8.70;99.90;;;;;;4992483;28;20423;-67
2022/03/15 00:59:19;;;;;;;4.37;3.30;;;8.80;99.90;;;;;;4993967;28;20342;-67
2022/03/15 01:01:46;;;;;;;5.70;3.67;;;8.70;99.90;;;;;;4993869;28;20447;-67
2022/03/15 01:04:12;;;;;;;5.10;3.50;;;8.70;99.90;;;;;;4994446;28;20187;-68
2022/03/15 01:06:38;;;;;;;8.20;4.40;;;8.80;99.90;;;;;;4993858;28;20460;-67
2022/03/15 01:09:05;;;;;;;4.27;3.27;;;8.80;99.90;;;;;;4993302;28;20422;-67
2022/03/15 01:11:31;;;;;;;5.10;3.53;;;8.70;99.90;;;;;;4993234;28;20447;-67
2022/03/15 01:13:56;;;;;;;4.03;3.53;;;8.60;99.90;;;;;;4993539;28;20429;-68
2022/03/15 01:16:22;;;;;;;6.77;3.63;;;8.60;99.90;;;;;;4993928;28;20217;-67
2022/03/15 01:18:48;;;;;;;4.70;3.60;;;8.50;99.90;;;;;;4993980;28;20222;-67
2022/03/15 01:21:14;;;;;;;4.10;3.70;;;8.70;99.90;;;;;;4994095;28;20413;-67
2022/03/15 01:23:40;;;;;;;5.93;3.80;;;8.70;99.90;;;;;;4994300;28;20187;-67
2022/03/15 01:26:06;;;;;;;6.50;3.73;;;8.70;99.90;;;;;;4994494;28;20180;-67
2022/03/15 01:28:32;;;;;;;5.97;3.70;;;8.80;99.90;;;;;;4985617;28;20423;-67
2022/03/15 01:30:58;;;;;;;6.37;4.43;;;8.80;99.90;;;;;;4953589;28;20468;-68
2022/03/15 01:33:24;;;;;;;13.00;4.00;;;8.80;99.90;;;;;;4954656;28;20417;-67
2022/03/15 01:35:50;;;;;;;4.77;3.30;;;8.70;99.90;;;;;;4955092;28;20166;-67
2022/03/15 01:38:15;;;;;;;9.73;4.07;;;8.70;99.90;;;;;;4955363;28;20498;-68
2022/03/15 01:40:41;;;;;;;4.43;4.03;;;8.70;99.90;;;;;;4981281;28;20202;-67
2022/03/15 01:43:07;;;;;;;5.40;3.93;;;8.60;99.90;;;;;;4993405;28;20179;-67
2022/03/15 01:45:35;;;;;;;6.30;4.10;;;8.60;99.90;;;;;;4993959;28;20414;-67
2022/03/15 01:48:02;;;;;;;5.17;3.47;;;8.60;99.90;;;;;;4991232;28;20227;-68
2022/03/15 01:50:28;;;;;;;6.77;3.80;;;8.60;99.90;;;;;;4991895;28;20482;-68
2022/03/15 01:52:54;;;;;;;4.30;3.90;;;8.50;99.90;;;;;;4993779;28;20442;-68
2022/03/15 01:55:19;;;;;;;5.10;3.53;;;8.60;99.90;;;;;;4992147;28;20198;-68
2022/03/15 01:57:45;;;;;;;4.07;3.17;;;8.60;99.90;;;;;;4992899;28;20423;-66
2022/03/15 02:00:11;;;;;;;4.50;3.30;;;8.60;99.90;;;;;;4993036;28;20166;-67
2022/03/15 02:02:38;;;;;;;4.80;3.10;;;8.50;99.90;;;;;;4992985;28;20171;-68
2022/03/15 02:05:05;;;;;;;5.03;3.37;;;8.50;99.90;;;;;;4992779;28;20466;-67
2022/03/15 02:07:30;;;;;;;4.30;3.00;;;8.60;99.90;;;;;;4992563;28;20456;-67
2022/03/15 02:09:56;;;;;;;3.57;3.27;;;8.60;99.90;;;;;;4992679;28;20450;-67
2022/03/15 02:12:22;;;;;;;4.50;3.70;;;8.60;99.90;;;;;;4992835;28;20215;-67
2022/03/15 02:14:48;;;;;;;7.33;3.53;;;8.70;99.90;;;;;;4992977;28;20512;-67
2022/03/15 02:17:13;;;;;;;5.80;3.70;;;8.70;99.90;;;;;;4992593;28;20553;-68
2022/03/15 02:19:39;;;;;;;3.53;3.23;;;8.70;99.90;;;;;;4992553;28;20174;-67
2022/03/15 02:22:05;;;;;;;6.23;3.50;;;8.60;99.90;;;;;;4992960;28;20253;-65
2022/03/15 02:24:30;;;;;;;4.17;3.73;;;8.50;99.90;;;;;;4993057;28;20176;-67
2022/03/15 02:26:56;;;;;;;6.30;3.80;;;8.50;99.90;;;;;;4993628;28;20175;-68
2022/03/15 02:29:22;;;;;;;5.37;3.60;;;8.60;99.90;;;;;;4993855;28;20265;-67
2022/03/15 02:31:49;;;;;;;4.57;3.50;;;8.60;99.90;;;;;;4973215;28;20195;-68
2022/03/15 02:34:16;;;;;;;6.50;3.20;;;8.70;99.90;;;;;;4968642;28;20786;-68
2022/03/15 02:36:43;;;;;;;7.20;4.13;;;8.70;99.90;;;;;;4973000;28;20927;-68
2022/03/15 02:39:09;;;;;;;7.47;3.37;;;8.60;99.90;;;;;;4973202;28;20482;-68
2022/03/15 02:41:34;;;;;;;3.50;3.07;;;8.60;99.90;;;;;;4992156;28;20453;-68
2022/03/15 02:44:00;;;;;;;6.17;3.80;;;8.70;99.90;;;;;;4992696;28;20179;-68
2022/03/15 02:46:30;;;;;;;4.57;3.60;;;8.70;99.90;;;;;;4992952;28;20660;-68
2022/03/15 02:48:56;;;;;;;4.53;3.33;;;8.70;99.90;;;;;;4992437;28;20462;-68
2022/03/15 02:51:22;;;;;;;5.43;3.23;;;8.60;99.90;;;;;;4992504;28;20535;-68
2022/03/15 02:53:49;;;;;;;5.13;3.40;;;8.60;99.90;;;;;;4992370;28;20912;-68
2022/03/15 02:56:15;;;;;;;4.00;3.60;;;8.60;99.90;;;;;;4992144;28;20255;-68
2022/03/15 02:58:41;;;;;;;3.60;3.20;;;8.50;99.90;;;;;;4991568;28;20437;-68
2022/03/15 03:01:08;;;;;;;4.40;3.63;;;8.50;99.90;;;;;;4992926;28;20456;-68
2022/03/15 03:03:34;;;;;;;7.97;3.63;;;8.60;99.90;;;;;;4992826;28;20517;-68
2022/03/15 03:06:00;;;;;;;4.63;3.70;;;8.50;99.90;;;;;;4992844;28;20401;-68
2022/03/15 03:08:27;;;;;;;6.33;4.20;;;8.60;99.90;;;;;;4992744;28;20459;-68
2022/03/15 03:10:55;;;;;;;4.00;3.00;;;8.40;99.90;;;;;;4995091;28;20510;-68
2022/03/15 03:13:25;;;;;;;5.33;3.60;;;8.40;99.90;;;;;;4994462;28;20422;-67
2022/03/15 03:15:52;;;;;;;3.67;3.20;;;8.50;99.90;;;;;;4996329;28;20427;-67
2022/03/15 03:18:18;;;;;;;5.40;3.50;;;8.50;99.90;;;;;;4996057;28;20421;-67
2022/03/15 03:20:44;;;;;;;3.33;3.03;;;8.60;99.90;;;;;;4996074;28;20462;-67
2022/03/15 03:23:09;;;;;;;4.43;3.93;;;8.70;99.90;;;;;;4996117;28;20170;-67
2022/03/15 03:25:36;;;;;;;4.70;3.30;;;8.70;99.90;;;;;;4995355;28;20754;-67
2022/03/15 03:28:03;;;;;;;8.20;3.87;;;8.60;99.90;;;;;;4995805;28;20194;-67
2022/03/15 03:30:30;;;;;;;3.47;3.17;;;8.60;99.90;;;;;;4995882;28;20483;-67
2022/03/15 03:32:56;;;;;;;4.07;3.20;;;8.60;99.90;;;;;;4995841;28;20413;-67
2022/03/15 03:35:22;;;;;;;5.23;3.10;;;8.60;99.90;;;;;;4986734;28;20720;-67
2022/03/15 03:37:47;;;;;;;5.00;4.00;;;8.60;99.90;;;;;;4956961;28;20797;-67
2022/03/15 03:40:13;;;;;;;3.30;3.00;;;8.60;99.90;;;;;;4971220;28;20425;-67
2022/03/15 03:42:40;;;;;;;3.67;3.37;;;8.60;99.90;;;;;;4995632;28;20173;-67
2022/03/15 03:45:07;;;;;;;3.73;2.93;;;8.60;99.90;;;;;;4996055;28;20517;-67
2022/03/15 03:47:33;;;;;;;4.23;3.23;;;8.60;99.90;;;;;;4995462;28;20521;-67
2022/03/15 03:49:58;;;;;;;4.03;3.60;;;8.60;99.90;;;;;;4995086;28;20455;-67
2022/03/15 03:52:24;;;;;;;3.50;3.20;;;8.70;99.90;;;;;;4995374;28;20416;-67
2022/03/15 03:54:50;;;;;;;6.70;4.50;;;8.70;99.90;;;;;;4994861;28;20224;-67
2022/03/15 03:57:16;;;;;;;9.10;4.27;;;8.70;99.90;;;;;;4993926;28;20195;-67
2022/03/15 03:59:42;;;;;;;4.70;3.20;;;8.80;99.90;;;;;;4995175;28;20407;-67
2022/03/15 04:02:07;;;;;;;6.90;3.40;;;8.80;99.90;;;;;;4995120;28;20678;-67
2022/03/15 04:04:33;;;;;;;6.10;3.90;;;8.80;99.90;;;;;;4995515;28;20171;-67
2022/03/15 04:07:05;;;;;;;3.77;3.37;;;8.80;99.90;;;;;;4993562;28;20213;-67
2022/03/15 04:09:30;;;;;;;3.50;3.20;;;8.70;99.90;;;;;;5032629;23;20329;-69
2022/03/15 04:11:56;;;;;;;3.73;2.80;;;8.80;99.90;;;;;;5034192;28;20549;-69
2022/03/15 04:14:22;;;;;;;4.67;3.53;;;8.90;99.90;;;;;;5034394;28;20170;-69
2022/03/15 04:16:48;;;;;;;6.70;3.60;;;8.90;99.90;;;;;;5034439;28;20542;-68
2022/03/15 04:19:14;;;;;;;5.73;3.77;;;8.80;99.90;;;;;;5034523;28;20186;-69
2022/03/15 04:21:40;;;;;;;5.00;3.50;;;8.80;99.90;;;;;;5033178;28;20406;-69
2022/03/15 04:24:05;;;;;;;4.73;3.33;;;8.60;99.90;;;;;;5034348;28;20169;-69
2022/03/15 04:26:31;;;;;;;6.30;3.90;;;8.50;99.90;;;;;;5034174;28;20272;-69
2022/03/15 04:28:57;;;;;;;11.23;4.03;;;8.40;99.90;;;;;;5034291;28;20643;-69
2022/03/15 04:31:22;;;;;;;5.40;3.30;;;8.40;99.90;;;;;;5034769;28;20220;-68
2022/03/15 04:33:49;;;;;;;4.93;3.33;;;8.50;99.90;;;;;;5034607;28;20532;-69
2022/03/15 04:36:14;;;;;;;8.80;4.03;;;8.60;99.90;;;;;;5033673;28;20412;-69
2022/03/15 04:38:40;;;;;;;4.30;3.27;;;8.50;99.90;;;;;;5032950;28;20446;-68
2022/03/15 04:41:06;;;;;;;6.33;3.73;;;8.50;99.90;;;;;;5032594;28;20189;-68
2022/03/15 04:43:32;;;;;;;8.60;4.30;;;8.40;99.90;;;;;;5034105;28;20485;-69
2022/03/15 04:45:59;;;;;;;4.83;3.80;;;8.40;99.90;;;;;;5033564;28;20405;-69
2022/03/15 04:48:24;;;;;;;5.53;3.47;;;8.50;99.90;;;;;;5033571;28;20935;-68
2022/03/15 04:50:50;;;;;;;3.27;3.00;;;8.50;99.90;;;;;;5031945;28;20460;-69
2022/03/15 04:53:16;;;;;;;4.97;3.47;;;8.50;99.90;;;;;;5032166;28;20174;-69
2022/03/15 04:55:42;;;;;;;4.03;3.50;;;8.50;99.90;;;;;;5033333;28;20405;-69
2022/03/15 04:58:08;;;;;;;8.80;4.10;;;8.50;99.90;;;;;;5032231;28;20534;-69
2022/03/15 05:00:34;;;;;;;7.97;3.87;;;8.40;99.90;;;;;;5033160;28;20495;-69
2022/03/15 05:02:59;;;;;;;5.53;3.23;;;8.40;99.90;;;;;;5033378;28;20174;-69
2022/03/15 05:05:25;;;;;;;7.73;3.30;;;8.50;99.90;;;;;;5033283;28;20185;-69
2022/03/15 05:07:50;;;;;;;4.07;3.00;;;8.50;99.90;;;;;;5033466;28;20281;-69
2022/03/15 05:13:03;;;;;;;7.70;3.43;;;8.50;99.90;;;;;;5033153;28;20605;-69
2022/03/15 05:15:29;;;;;;;5.07;3.77;;;8.50;99.90;;;;;;5032920;28;20404;-68
2022/03/15 05:17:55;;;;;;;3.23;2.93;;;8.50;99.90;;;;;;5032369;28;20939;-68
2022/03/15 05:20:20;;;;;;;6.93;3.10;;;8.60;99.90;;;;;;5033016;28;20269;-68
2022/03/15 05:22:46;;;;;;;9.03;3.10;;;8.50;99.90;;;;;;5032952;28;20183;-68
2022/03/15 05:25:15;;;;;;;4.20;3.33;;;8.50;99.90;;;;;;5022460;28;20856;-69
2022/03/15 05:27:41;;;;;;;5.23;2.90;;;8.40;99.90;;;;;;5030096;28;20749;-69
2022/03/15 05:30:08;;;;;;;5.40;3.43;;;8.40;99.90;;;;;;5029481;28;21088;-69
2022/03/15 05:32:34;;;;;;;3.93;3.13;;;8.30;99.90;;;;;;5030691;28;20448;-68
2022/03/15 05:35:00;;;;;;;5.67;3.03;;;8.40;99.90;;;;;;5032520;28;20461;-69
2022/03/15 05:37:25;;;;;;;6.03;4.20;;;8.50;99.90;;;;;;5026419;28;20182;-69
2022/03/15 05:39:51;;;;;;;4.07;3.67;;;8.60;99.90;;;;;;5013077;28;20192;-69
2022/03/15 05:42:18;;;;;;;5.80;3.80;;;8.60;99.90;;;;;;5031644;28;20169;-69
2022/03/15 05:44:45;;;;;;;6.60;3.00;;;8.60;99.90;;;;;;5032536;28;20174;-69
2022/03/15 05:47:11;;;;;;;5.60;4.23;;;8.40;99.90;;;;;;5032830;28;20438;-69
2022/03/15 05:49:36;;;;;;;9.67;4.40;;;8.40;99.90;;;;;;5032828;28;20852;-69
2022/03/15 05:52:03;;;;;;;8.53;4.17;;;8.60;99.90;;;;;;5033288;28;20196;-69
2022/03/15 05:54:29;;;;;;;4.77;3.60;;;8.70;99.90;;;;;;5033140;28;20242;-68
2022/03/15 05:56:55;;;;;;;3.70;3.10;;;8.70;99.90;;;;;;5031930;28;20863;-68
2022/03/15 05:59:21;;;;;;;6.10;3.50;;;8.70;99.90;;;;;;5032957;28;20453;-68
2022/03/15 06:01:46;;;;;;;6.83;3.60;;;8.60;99.90;;;;;;5033069;28;20172;-68
2022/03/15 06:04:12;;;;;;;4.30;3.20;;;8.60;99.90;;;;;;5032734;28;20185;-68
2022/03/15 06:06:38;;;;;;;4.17;3.00;;;8.60;99.90;;;;;;5032116;28;20226;-68
2022/03/15 06:09:04;;;;;;;6.93;3.83;;;8.60;99.90;;;;;;5032796;28;20203;-68
2022/03/15 06:11:32;;;;;;;3.93;3.47;;;8.60;99.90;;;;;;5033222;28;20188;-68
2022/03/15 06:13:58;;;;;;;7.23;4.17;;;8.60;99.90;;;;;;5033590;28;20436;-68
2022/03/15 06:16:24;;;;;;;5.30;3.63;;;8.70;99.90;;;;;;5033046;28;20416;-68
2022/03/15 06:18:50;;;;;;;7.80;4.20;;;8.60;99.90;;;;;;5032568;28;20420;-68
2022/03/15 06:21:17;;;;;;;7.50;3.97;;;8.70;99.90;;;;;;5031669;28;20259;-68
2022/03/15 06:23:42;;;;;;;6.60;3.73;;;8.80;99.90;;;;;;5031451;28;20413;-68
2022/03/15 06:26:09;;;;;;;6.43;3.47;;;9.00;99.90;;;;;;5031203;28;20766;-68
2022/03/15 06:28:36;;;;;;;4.73;3.90;;;9.00;99.90;;;;;;5032631;28;20188;-69
2022/03/15 06:31:02;;;;;;;9.10;4.30;;;9.00;99.90;;;;;;5032606;28;20471;-68
2022/03/15 06:33:28;;;;;;;8.03;3.97;;;9.10;99.90;;;;;;5025093;28;20519;-68
2022/03/15 06:35:54;;;;;;;4.53;3.93;;;9.20;99.90;;;;;;5016441;28;20480;-69
2022/03/15 06:38:20;;;;;;;5.50;4.00;;;9.20;99.90;;;;;;5012080;28;20521;-69
2022/03/15 06:40:49;;;;;;;9.17;5.10;;;9.10;99.90;;;;;;5017125;28;20185;-70
2022/03/15 06:43:15;;;;;;;10.93;4.10;;;9.00;99.90;;;;;;5030478;28;20179;-69
2022/03/15 06:45:41;;;;;;;4.30;3.60;;;9.00;99.90;;;;;;5035512;28;20965;-69
2022/03/15 06:48:07;;;;;;;9.37;4.90;;;9.10;99.90;;;;;;5036565;28;20189;-69
2022/03/15 06:50:34;;;;;;;9.40;4.60;;;9.10;99.90;;;;;;5036783;28;20445;-69
2022/03/15 06:53:00;;;;;;;5.40;4.20;;;9.30;99.90;;;;;;5036885;28;20407;-68
2022/03/15 06:55:26;;;;;;;6.70;4.60;;;9.40;99.90;;;;;;5036798;28;20787;-68
2022/03/15 06:57:52;;;;;;;6.17;4.80;;;9.60;99.90;;;;;;5036788;28;20581;-68
2022/03/15 07:00:18;;;;;;;6.90;4.73;;;9.70;99.90;;;;;;5036144;28;20469;-67
2022/03/15 07:02:44;;;;;;;4.90;4.40;;;9.90;99.90;;;;;;5034964;28;20171;-68
2022/03/15 07:05:09;;;;;;;9.43;5.30;;;10.00;99.90;;;;;;5036342;28;20183;-69
2022/03/15 07:07:36;;;;;;;7.73;5.30;;;10.10;99.90;;;;;;5036829;28;20236;-69
2022/03/15 07:10:05;;;;;;;6.50;4.60;;;10.30;99.90;;;;;;5036370;28;20207;-69
2022/03/15 07:12:32;;;;;;;6.77;4.60;;;10.50;99.90;;;;;;5036044;28;20472;-69
2022/03/15 07:14:57;;;;;;;9.40;4.90;;;10.60;99.90;;;;;;5036598;28;20422;-68
2022/03/15 07:17:23;;;;;;;6.13;5.03;;;10.70;99.90;;;;;;5036227;28;20774;-68
2022/03/15 07:19:48;;;;;;;8.40;5.10;;;10.80;99.90;;;;;;5034742;28;20318;-68
2022/03/15 07:22:14;;;;;;;6.40;4.87;;;10.90;99.90;;;;;;5036176;28;20688;-69
2022/03/15 07:24:40;;;;;;;7.27;4.90;;;11.00;99.90;;;;;;5036559;28;20172;-68
2022/03/15 07:27:06;;;;;;;8.93;5.40;;;11.00;99.90;;;;;;5036169;28;20399;-68
2022/03/15 07:29:32;;;;;;;9.40;5.40;;;11.00;99.90;;;;;;5036190;28;20181;-69
2022/03/15 07:31:58;;;;;;;9.47;4.70;;;11.00;99.90;;;;;;5034736;28;20456;-69
2022/03/15 07:34:24;;;;;;;7.20;5.03;;;11.10;99.90;;;;;;5036454;28;20295;-68
2022/03/15 07:36:49;;;;;;;5.13;4.50;;;11.20;99.90;;;;;;5027635;28;20188;-68
2022/03/15 07:39:15;;;;;;;5.63;4.87;;;11.20;99.90;;;;;;5014825;28;20437;-68
2022/03/15 07:41:42;;;;;;;8.67;5.27;;;11.30;99.90;;;;;;5027586;28;20577;-68
2022/03/15 07:44:10;;;;;;;6.27;4.10;;;11.20;99.90;;;;;;5034994;28;20229;-68
2022/03/15 07:46:37;;;;;;;7.07;4.57;;;11.20;99.90;;;;;;5035584;28;20856;-67
2022/03/15 07:49:03;;;;;;;6.30;3.93;;;11.20;99.90;;;;;;5032664;28;20480;-69
2022/03/15 07:51:29;;;;;;;6.40;4.90;;;11.00;99.90;;;;;;5035500;28;20455;-68
2022/03/15 07:53:55;;;;;;;6.13;4.50;;;11.00;99.90;;;;;;5035642;28;20468;-69
2022/03/15 07:56:21;;;;;;;5.03;4.40;;;11.00;99.90;;;;;;5035330;28;20175;-68
2022/03/15 07:58:47;;;;;;;8.40;4.70;;;11.10;99.90;;;;;;5035543;28;20437;-69
2022/03/15 08:01:13;;;;;;;4.23;3.83;;;11.20;99.90;;;;;;5035713;28;20463;-68
2022/03/15 08:03:38;;;;;;;6.63;4.17;;;11.20;99.90;;;;;;5035274;28;20651;-68
2022/03/15 08:06:04;;;;;;;5.10;4.57;;;11.30;99.90;;;;;;5035632;28;20250;-67
2022/03/15 08:08:30;;;;;;;7.40;4.60;;;11.40;99.90;;;;;;5035046;28;20296;-68
2022/03/15 08:10:55;;;;;;;5.83;3.80;;;11.60;99.90;;;;;;5035429;28;20187;-68
2022/03/15 08:13:21;;;;;;;6.13;4.50;;;11.50;99.90;;;;;;5034951;28;20543;-68
2022/03/15 08:15:47;;;;;;;6.47;4.60;;;11.50;99.90;;;;;;5035118;28;20249;-68
2022/03/15 08:18:13;;;;;;;8.13;4.40;;;11.70;99.90;;;;;;5034726;28;20430;-68
2022/03/15 08:20:40;;;;;;;10.40;4.57;;;11.50;99.90;;;;;;5035425;28;20445;-68
2022/03/15 08:23:07;;;;;;;10.43;4.00;;;11.40;99.90;;;;;;5034990;28;20217;-68
2022/03/15 08:25:32;;;;;;;6.00;4.07;;;11.50;99.90;;;;;;5035197;28;20424;-69
2022/03/15 08:28:00;;;;;;;5.13;3.50;;;11.80;99.90;;;;;;5035125;28;20534;-69
2022/03/15 08:30:27;;;;;;;5.00;3.50;;;11.80;99.90;;;;;;5034826;28;20806;-69
2022/03/15 08:32:52;;;;;;;4.40;3.33;;;11.90;99.90;;;;;;5034227;28;20402;-69
2022/03/15 08:35:18;;;;;;;4.27;3.10;;;12.10;99.90;;;;;;5034962;28;20416;-70
2022/03/15 08:37:50;;;;;;;5.93;3.60;;;12.10;99.90;;;;;;5035217;28;20684;-70
2022/03/15 08:40:16;;;;;;;7.03;3.50;;;12.30;99.90;;;;;;5034844;28;20217;-70
2022/03/15 08:42:42;;;;;;;8.23;3.53;;;12.50;99.90;;;;;;5033186;28;20443;-70
2022/03/15 08:45:09;;;;;;;8.13;4.10;;;12.60;99.90;;;;;;5034525;28;20415;-70
2022/03/15 08:47:35;;;;;;;6.63;3.53;;;12.70;99.90;;;;;;5034457;28;20418;-70
2022/03/15 08:50:01;;;;;;;7.60;3.80;;;12.90;99.90;;;;;;5034502;28;20445;-70
2022/03/15 08:52:26;;;;;;;5.47;3.00;;;12.90;99.90;;;;;;5034229;28;20411;-70
2022/03/15 08:54:52;;;;;;;6.03;4.47;;;13.10;99.90;;;;;;5032837;28;20175;-71
2022/03/15 08:57:18;;;;;;;7.37;3.77;;;13.20;99.90;;;;;;5031572;28;20191;-70
2022/03/15 08:59:43;;;;;;;6.20;3.43;;;13.30;99.90;;;;;;5034616;28;20195;-70
2022/03/15 09:02:12;;;;;;;3.77;3.00;;;13.20;99.90;;;;;;5032912;28;20182;-70
2022/03/15 09:04:38;;;;;;;4.77;3.60;;;13.20;99.90;;;;;;5034964;28;20183;-70
2022/03/15 09:07:04;;;;;;;3.37;2.90;;;13.30;99.90;;;;;;5033405;28;20431;-70
2022/03/15 09:09:29;;;;;;;4.10;3.10;;;13.40;99.90;;;;;;5033908;28;20448;-70
2022/03/15 09:11:55;;;;;;;5.83;3.50;;;13.30;99.90;;;;;;5033981;28;20570;-70
2022/03/15 09:14:21;;;;;;;4.40;3.00;;;13.00;99.90;;;;;;5034169;28;20167;-70
2022/03/15 09:16:47;;;;;;;7.83;3.80;;;12.80;99.90;;;;;;5034079;28;20166;-69
2022/03/15 09:19:12;;;;;;;3.87;3.47;;;12.90;99.90;;;;;;5034104;28;20194;-70
2022/03/15 09:21:38;;;;;;;3.97;3.33;;;13.00;99.90;;;;;;5033507;28;20209;-70
2022/03/15 09:24:04;;;;;;;4.60;3.17;;;12.80;99.90;;;;;;5033995;28;20637;-70
2022/03/15 09:26:30;;;;;;;3.70;3.30;;;12.60;99.90;;;;;;5029031;28;20184;-70
2022/03/15 09:28:56;;;;;;;5.03;3.33;;;12.50;99.90;;;;;;5015965;28;20446;-70
2022/03/15 09:31:21;;;;;;;3.83;3.53;;;12.40;99.90;;;;;;5033676;28;20286;-71
2022/03/15 09:33:47;;;;;;;3.10;2.80;;;12.70;99.90;;;;;;5034012;28;20178;-70
2022/03/15 09:36:15;;;;;;;6.57;3.57;;;12.90;99.90;;;;;;5033979;28;20196;-69
2022/03/15 09:38:41;;;;;;;6.50;3.40;;;13.20;99.90;;;;;;5034964;28;20638;-69
2022/03/15 09:41:07;;;;;;;3.73;3.00;;;13.10;99.90;;;;;;5033994;28;20891;-70
2022/03/15 09:43:36;;;;;;;2.97;2.53;;;12.90;99.90;;;;;;5033385;28;20468;-70
2022/03/15 09:46:04;;;;;;;7.00;3.40;;;13.00;99.90;;;;;;5035707;28;20782;-70
2022/03/15 09:48:30;;;;;;;4.03;3.40;;;13.20;99.90;;;;;;5035223;28;20515;-69
2022/03/15 09:50:56;;;;;;;4.63;3.70;;;13.10;99.90;;;;;;5034625;28;20489;-70
2022/03/15 09:53:22;;;;;;;3.50;2.63;;;13.10;99.90;;;;;;5033565;28;20258;-70
2022/03/15 09:55:48;;;;;;;6.20;3.17;;;13.10;99.90;;;;;;5033060;28;20178;-70
2022/03/15 09:58:23;;;;;;;4.13;3.13;;;13.10;99.90;;;;;;5031075;28;20433;-69
2022/03/15 10:00:52;;;;;;;4.60;3.67;;;12.50;99.90;;;;;;5034031;28;20389;-70
2022/03/15 10:03:20;;;;;;;3.30;3.00;;;12.40;99.90;;;;;;5034290;28;20414;-70
2022/03/15 10:05:45;;;;;;;4.10;3.10;;;12.70;99.90;;;;;;5034067;28;20451;-70
2022/03/15 10:08:13;;;;;;;2.87;2.23;;;12.70;99.90;;;;;;5034113;28;20536;-70
2022/03/15 10:10:38;;;;;;;4.90;3.30;;;12.70;99.90;;;;;;5051833;23;20500;-67
2022/03/15 10:13:04;;;;;;;3.47;3.17;;;12.50;99.90;;;;;;5019170;28;20401;-67
2022/03/15 10:15:29;;;;;;;5.87;3.53;;;12.60;99.90;;;;;;5012132;28;20174;-66
2022/03/15 10:18:04;;;;;;;4.60;3.10;;;12.80;99.90;;;;;;5012931;28;20220;-67
2022/03/15 10:20:41;;;;;;;3.30;2.60;;;12.80;99.90;;;;;;5013521;28;20195;-67
2022/03/15 10:23:09;;;;;;;3.10;2.70;;;12.80;99.90;;;;;;5013300;28;20385;-68
2022/03/15 10:25:36;;;;;;;3.90;3.00;;;13.00;99.90;;;;;;5012961;28;20392;-68
2022/03/15 10:28:05;;;;;;;6.07;3.30;;;13.10;99.90;;;;;;5012306;28;20437;-68
2022/03/15 10:30:31;;;;;;;3.83;3.20;;;13.20;99.90;;;;;;5013253;28;20457;-66
2022/03/15 10:32:57;;;;;;;4.83;3.17;;;13.20;99.90;;;;;;5014431;28;20429;-68
2022/03/15 10:35:29;;;;;;;4.93;3.57;;;13.00;99.90;;;;;;5013081;28;20401;-67
2022/03/15 10:37:56;;;;;;;5.43;3.50;;;12.70;99.90;;;;;;5013476;28;20762;-68
2022/03/15 10:40:35;;;;;;;4.30;3.73;;;12.60;99.90;;;;;;5011891;28;20817;-67
2022/03/15 10:43:24;;;;;;;6.17;3.30;;;12.60;99.90;;;;;;5013431;28;20506;-68
2022/03/15 10:45:56;;;;;;;6.17;3.67;;;12.70;99.90;;;;;;5010411;28;20415;-68
2022/03/15 10:48:32;;;;;;;4.13;3.37;;;12.70;99.90;;;;;;5013358;28;20399;-68
2022/03/15 10:51:09;;;;;;;5.10;3.70;;;12.90;99.90;;;;;;5013291;28;20496;-68
2022/03/15 10:54:03;;;;;;;5.03;4.20;;;13.10;99.90;;;;;;5013342;28;20806;-68
2022/03/15 10:56:29;;;;;;;7.40;5.23;;;13.10;99.90;;;;;;5011923;28;20932;-68
2022/03/15 10:59:05;;;;;;;6.17;3.93;;;13.20;99.90;;;;;;5013173;28;20430;-68
2022/03/15 11:01:41;;;;;;;6.60;4.27;;;13.00;99.90;;;;;;5013333;28;20752;-68
2022/03/15 11:04:12;;;;;;;5.50;4.07;;;13.10;99.90;;;;;;5013443;28;20840;-68
2022/03/15 11:06:44;;;;;;;7.23;4.90;;;13.20;99.90;;;;;;5013020;28;20391;-68
2022/03/15 11:09:17;;;;;;;4.20;3.73;;;13.30;99.90;;;;;;5012972;28;20390;-68
2022/03/15 11:11:47;;;;;;;5.53;3.70;;;13.30;99.90;;;;;;5012708;28;20993;-68
2022/03/15 11:14:13;;;;;;;4.33;3.63;;;13.20;99.90;;;;;;5012991;28;20395;-68
2022/03/15 11:16:42;;;;;;;6.20;4.70;;;13.10;99.90;;;;;;5011919;28;20409;-67
2022/03/15 11:19:11;;;;;;;5.37;4.30;;;13.20;99.90;;;;;;5012426;28;20410;-67
2022/03/15 11:21:39;;;;;;;5.70;4.27;;;13.10;99.90;;;;;;5013083;28;20416;-68
2022/03/15 11:24:09;;;;;;;6.60;5.53;;;13.00;99.90;;;;;;5013014;28;20417;-68
2022/03/15 11:26:36;;;;;;;6.30;4.57;;;13.00;99.90;;;;;;5012701;28;20387;-68
2022/03/15 11:29:02;;;;;;;5.40;4.90;;;13.10;99.90;;;;;;5013104;28;20742;-68
2022/03/15 11:31:29;;;;;;;7.63;5.50;;;12.90;99.90;;;;;;5014349;28;20454;-68
2022/03/15 11:33:56;;;;;;;5.47;5.00;;;12.90;99.90;;;;;;5016075;28;20780;-67
2022/03/15 11:36:25;;;;;;;6.60;5.50;;;12.80;99.90;;;;;;5016755;28;20779;-67
2022/03/15 11:38:52;;;;;;;6.87;6.20;;;12.80;99.90;;;;;;5016580;28;20403;-67
2022/03/15 11:41:20;;;;;;;7.03;6.33;;;12.70;99.90;;;;;;5016077;28;20806;-67
2022/03/15 11:44:21;;;;;;;11.13;6.23;;;12.60;99.90;;;;;;5015349;28;20983;-67
2022/03/15 11:47:00;;;;;;;13.43;8.30;;;12.60;99.90;;;;;;5016923;28;20494;-67
2022/03/15 11:49:46;;;;;;;9.50;8.50;;;12.50;99.90;;;;;;5015981;28;20987;-66
2022/03/15 11:52:53;;;;;;;10.73;7.77;;;12.50;99.90;;;;;;5015840;28;20430;-67
2022/03/15 11:55:45;;;;;;;12.20;8.37;;;12.30;99.90;;;;;;5015721;28;20414;-67
2022/03/15 11:58:11;;;;;;;13.87;9.63;;;12.20;99.90;;;;;;5016141;28;20443;-67
2022/03/15 12:00:42;;;;;;;9.83;8.70;;;12.40;99.90;;;;;;5016075;28;20477;-67
2022/03/15 12:03:08;;;;;;;12.03;7.43;;;12.30;99.90;;;;;;5014933;28;20418;-68
2022/03/15 12:05:51;;;;;;;7.93;6.43;;;12.30;99.90;;;;;;5015322;28;20411;-67
2022/03/15 12:08:23;;;;;;;10.60;7.97;;;12.40;99.90;;;;;;5016004;28;20397;-68
2022/03/15 12:10:56;;;;;;;10.43;7.37;;;12.50;99.90;;;;;;5015616;28;20466;-68
2022/03/15 12:13:45;;;;;;;9.30;6.40;;;12.60;99.90;;;;;;5016097;28;20401;-68
2022/03/15 12:16:18;;;;;;;6.33;5.70;;;12.60;99.90;;;;;;5016254;28;20423;-68
2022/03/15 12:19:06;;;;;;;13.57;6.73;;;12.70;99.90;;;;;;5016149;28;20393;-68
2022/03/15 12:21:43;;;;;;;11.13;7.10;;;12.90;99.90;;;;;;5014536;28;20905;-67
2022/03/15 12:24:13;;;;;;;6.70;6.10;;;12.70;99.90;;;;;;5016383;28;20402;-68
2022/03/15 12:26:39;;;;;;;10.97;6.07;;;12.70;99.90;;;;;;5016326;28;20502;-68
2022/03/15 12:29:14;;;;;;;7.67;6.70;;;12.70;99.90;;;;;;5016182;28;20441;-67
2022/03/15 12:31:47;;;;;;;6.67;6.00;;;12.80;99.90;;;;;;5017576;28;20202;-68
2022/03/15 12:34:15;;;;;;;7.57;6.40;;;12.50;99.90;;;;;;5015703;28;20520;-68
2022/03/15 12:36:58;;;;;;;8.87;5.47;;;12.40;99.90;;;;;;5016056;28;20410;-68
2022/03/15 12:39:34;;;;;;;5.87;5.37;;;12.40;99.90;;;;;;5016217;28;20429;-68
2022/03/15 12:42:12;;;;;;;6.00;5.43;;;12.50;99.90;;;;;;5014762;28;20426;-68
2022/03/15 12:44:49;;;;;;;6.13;5.53;;;12.30;99.90;;;;;;4995873;28;20783;-68
2022/03/15 12:47:18;;;;;;;5.80;5.00;;;12.40;99.90;;;;;;4995649;28;20403;-67
2022/03/15 12:50:23;;;;;;;8.47;6.93;;;12.50;99.90;;;;;;4995753;28;20826;-67
2022/03/15 12:53:07;;;;;;;6.13;5.53;;;12.40;99.90;;;;;;4995390;28;20424;-67
2022/03/15 12:55:42;;;;;;;7.00;5.73;;;12.40;99.90;;;;;;4995502;28;20425;-67
2022/03/15 12:58:09;;;;;;;6.47;5.87;;;12.30;99.90;;;;;;4995134;28;20391;-67